sensor_id;sensor_type;location;lat;lon;timestamp;P1;durP1;ratioP1;P2;durP2;ratioP2
13331;SDS011;6735;51.456;12.626;2024-02-21T00:01:24;10.40;;;3.70;;
13331;SDS011;6735;51.456;12.626;2024-02-21T00:03:49;8.57;;;3.17;;
13331;SDS011;6735;51.456;12.626;2024-02-21T00:06:15;7.43;;;3.57;;
13331;SDS011;6735;51.456;12.626;2024-02-21T00:08:40;5.43;;;3.83;;
13331;SDS011;6735;51.456;12.626;2024-02-21T00:11:06;8.10;;;3.43;;
13331;SDS011;6735;51.456;12.626;2024-02-21T00:13:31;10.13;;;3.30;;
13331;SDS011;6735;51.456;12.626;2024-02-21T00:15:57;10.77;;;3.27;;
13331;SDS011;6735;51.456;12.626;2024-02-21T00:18:23;8.57;;;3.10;;
13331;SDS011;6735;51.456;12.626;2024-02-21T00:20:48;8.23;;;2.87;;
13331;SDS011;6735;51.456;12.626;2024-02-21T00:23:14;12.23;;;3.80;;
13331;SDS011;6735;51.456;12.626;2024-02-21T00:25:39;8.63;;;2.87;;
13331;SDS011;6735;51.456;12.626;2024-02-21T00:28:05;5.23;;;2.87;;
13331;SDS011;6735;51.456;12.626;2024-02-21T00:30:31;9.43;;;3.67;;
13331;SDS011;6735;51.456;12.626;2024-02-21T00:32:56;11.77;;;3.10;;
13331;SDS011;6735;51.456;12.626;2024-02-21T00:35:22;9.13;;;3.87;;
13331;SDS011;6735;51.456;12.626;2024-02-21T00:37:47;8.93;;;3.70;;
13331;SDS011;6735;51.456;12.626;2024-02-21T00:40:13;8.83;;;3.90;;
13331;SDS011;6735;51.456;12.626;2024-02-21T00:42:44;9.67;;;3.00;;
13331;SDS011;6735;51.456;12.626;2024-02-21T00:45:10;10.53;;;3.47;;
13331;SDS011;6735;51.456;12.626;2024-02-21T00:47:36;7.87;;;2.80;;
13331;SDS011;6735;51.456;12.626;2024-02-21T00:50:01;10.40;;;3.40;;
13331;SDS011;6735;51.456;12.626;2024-02-21T00:52:27;14.57;;;4.33;;
13331;SDS011;6735;51.456;12.626;2024-02-21T00:54:52;10.07;;;3.80;;
13331;SDS011;6735;51.456;12.626;2024-02-21T00:57:18;8.20;;;3.10;;
13331;SDS011;6735;51.456;12.626;2024-02-21T00:59:43;11.70;;;3.10;;
13331;SDS011;6735;51.456;12.626;2024-02-21T01:02:09;7.93;;;3.93;;
13331;SDS011;6735;51.456;12.626;2024-02-21T01:04:34;5.77;;;2.47;;
13331;SDS011;6735;51.456;12.626;2024-02-21T01:07:00;8.93;;;3.30;;
13331;SDS011;6735;51.456;12.626;2024-02-21T01:09:25;7.20;;;3.03;;
13331;SDS011;6735;51.456;12.626;2024-02-21T01:11:51;7.83;;;3.03;;
13331;SDS011;6735;51.456;12.626;2024-02-21T01:14:16;9.77;;;3.10;;
13331;SDS011;6735;51.456;12.626;2024-02-21T01:16:42;9.77;;;2.90;;
13331;SDS011;6735;51.456;12.626;2024-02-21T01:19:07;6.80;;;3.53;;
13331;SDS011;6735;51.456;12.626;2024-02-21T01:21:33;12.00;;;3.30;;
13331;SDS011;6735;51.456;12.626;2024-02-21T01:23:58;8.07;;;3.83;;
13331;SDS011;6735;51.456;12.626;2024-02-21T01:26:24;9.03;;;3.73;;
13331;SDS011;6735;51.456;12.626;2024-02-21T01:28:49;7.57;;;3.23;;
13331;SDS011;6735;51.456;12.626;2024-02-21T01:31:15;6.43;;;3.37;;
13331;SDS011;6735;51.456;12.626;2024-02-21T01:33:41;9.67;;;3.43;;
13331;SDS011;6735;51.456;12.626;2024-02-21T01:36:07;8.40;;;2.70;;
13331;SDS011;6735;51.456;12.626;2024-02-21T01:38:33;7.20;;;3.30;;
13331;SDS011;6735;51.456;12.626;2024-02-21T01:40:58;6.83;;;2.87;;
13331;SDS011;6735;51.456;12.626;2024-02-21T01:43:24;10.20;;;3.23;;
13331;SDS011;6735;51.456;12.626;2024-02-21T01:45:50;9.43;;;3.20;;
13331;SDS011;6735;51.456;12.626;2024-02-21T01:48:21;9.47;;;3.87;;
13331;SDS011;6735;51.456;12.626;2024-02-21T01:50:48;12.37;;;3.47;;
13331;SDS011;6735;51.456;12.626;2024-02-21T01:53:15;7.33;;;3.53;;
13331;SDS011;6735;51.456;12.626;2024-02-21T01:55:45;9.83;;;3.37;;
13331;SDS011;6735;51.456;12.626;2024-02-21T01:58:11;7.57;;;3.30;;
13331;SDS011;6735;51.456;12.626;2024-02-21T02:00:43;9.80;;;3.50;;
13331;SDS011;6735;51.456;12.626;2024-02-21T02:03:11;8.73;;;3.67;;
13331;SDS011;6735;51.456;12.626;2024-02-21T02:05:43;10.37;;;3.40;;
13331;SDS011;6735;51.456;12.626;2024-02-21T02:08:13;7.83;;;2.97;;
13331;SDS011;6735;51.456;12.626;2024-02-21T02:10:39;10.40;;;3.73;;
13331;SDS011;6735;51.456;12.626;2024-02-21T02:13:05;7.87;;;3.70;;
13331;SDS011;6735;51.456;12.626;2024-02-21T02:15:38;4.13;;;3.40;;
13331;SDS011;6735;51.456;12.626;2024-02-21T02:18:04;9.60;;;3.40;;
13331;SDS011;6735;51.456;12.626;2024-02-21T02:20:30;10.20;;;4.43;;
13331;SDS011;6735;51.456;12.626;2024-02-21T02:22:55;7.07;;;3.33;;
13331;SDS011;6735;51.456;12.626;2024-02-21T02:25:23;9.73;;;3.20;;
13331;SDS011;6735;51.456;12.626;2024-02-21T02:27:49;9.57;;;4.53;;
13331;SDS011;6735;51.456;12.626;2024-02-21T02:30:14;11.27;;;3.40;;
13331;SDS011;6735;51.456;12.626;2024-02-21T02:32:43;10.30;;;3.73;;
13331;SDS011;6735;51.456;12.626;2024-02-21T02:35:10;9.57;;;3.17;;
13331;SDS011;6735;51.456;12.626;2024-02-21T02:37:35;6.20;;;3.07;;
13331;SDS011;6735;51.456;12.626;2024-02-21T02:40:01;6.33;;;3.37;;
13331;SDS011;6735;51.456;12.626;2024-02-21T02:42:27;8.37;;;3.50;;
13331;SDS011;6735;51.456;12.626;2024-02-21T02:44:53;9.07;;;3.27;;
13331;SDS011;6735;51.456;12.626;2024-02-21T02:47:18;6.77;;;3.23;;
13331;SDS011;6735;51.456;12.626;2024-02-21T02:49:44;7.63;;;3.00;;
13331;SDS011;6735;51.456;12.626;2024-02-21T02:52:10;9.77;;;4.10;;
13331;SDS011;6735;51.456;12.626;2024-02-21T02:54:35;8.10;;;4.00;;
13331;SDS011;6735;51.456;12.626;2024-02-21T02:57:01;8.40;;;4.50;;
13331;SDS011;6735;51.456;12.626;2024-02-21T02:59:28;10.63;;;3.50;;
13331;SDS011;6735;51.456;12.626;2024-02-21T03:01:53;9.17;;;3.27;;
13331;SDS011;6735;51.456;12.626;2024-02-21T03:04:19;10.33;;;3.47;;
13331;SDS011;6735;51.456;12.626;2024-02-21T03:06:44;6.73;;;3.70;;
13331;SDS011;6735;51.456;12.626;2024-02-21T03:09:10;8.30;;;3.40;;
13331;SDS011;6735;51.456;12.626;2024-02-21T03:11:36;11.13;;;4.13;;
13331;SDS011;6735;51.456;12.626;2024-02-21T03:14:02;9.00;;;3.83;;
13331;SDS011;6735;51.456;12.626;2024-02-21T03:16:28;6.67;;;3.83;;
13331;SDS011;6735;51.456;12.626;2024-02-21T03:18:54;9.23;;;3.47;;
13331;SDS011;6735;51.456;12.626;2024-02-21T03:21:19;6.67;;;3.80;;
13331;SDS011;6735;51.456;12.626;2024-02-21T03:23:45;9.57;;;3.43;;
13331;SDS011;6735;51.456;12.626;2024-02-21T03:26:10;9.57;;;3.63;;
13331;SDS011;6735;51.456;12.626;2024-02-21T03:28:35;7.93;;;3.80;;
13331;SDS011;6735;51.456;12.626;2024-02-21T03:31:01;7.33;;;3.47;;
13331;SDS011;6735;51.456;12.626;2024-02-21T03:33:27;7.70;;;3.27;;
13331;SDS011;6735;51.456;12.626;2024-02-21T03:35:52;8.43;;;3.23;;
13331;SDS011;6735;51.456;12.626;2024-02-21T03:38:18;7.30;;;3.33;;
13331;SDS011;6735;51.456;12.626;2024-02-21T03:40:44;7.70;;;2.90;;
13331;SDS011;6735;51.456;12.626;2024-02-21T03:43:09;7.30;;;3.53;;
13331;SDS011;6735;51.456;12.626;2024-02-21T03:45:35;9.73;;;3.80;;
13331;SDS011;6735;51.456;12.626;2024-02-21T03:48:00;5.37;;;2.87;;
13331;SDS011;6735;51.456;12.626;2024-02-21T03:50:26;11.17;;;3.33;;
13331;SDS011;6735;51.456;12.626;2024-02-21T03:52:52;9.87;;;4.53;;
13331;SDS011;6735;51.456;12.626;2024-02-21T03:55:18;5.67;;;3.20;;
13331;SDS011;6735;51.456;12.626;2024-02-21T03:57:43;9.13;;;3.30;;
13331;SDS011;6735;51.456;12.626;2024-02-21T04:00:09;6.90;;;3.50;;
13331;SDS011;6735;51.456;12.626;2024-02-21T04:02:35;8.57;;;3.23;;
13331;SDS011;6735;51.456;12.626;2024-02-21T04:05:01;8.40;;;3.47;;
13331;SDS011;6735;51.456;12.626;2024-02-21T04:07:27;11.23;;;4.30;;
13331;SDS011;6735;51.456;12.626;2024-02-21T04:09:53;7.50;;;3.20;;
13331;SDS011;6735;51.456;12.626;2024-02-21T04:12:18;7.90;;;4.67;;
13331;SDS011;6735;51.456;12.626;2024-02-21T04:14:44;7.57;;;4.07;;
13331;SDS011;6735;51.456;12.626;2024-02-21T04:17:09;8.23;;;3.50;;
13331;SDS011;6735;51.456;12.626;2024-02-21T04:19:35;10.73;;;4.37;;
13331;SDS011;6735;51.456;12.626;2024-02-21T04:22:00;9.60;;;4.03;;
13331;SDS011;6735;51.456;12.626;2024-02-21T04:24:26;7.83;;;3.50;;
13331;SDS011;6735;51.456;12.626;2024-02-21T04:26:51;11.90;;;4.20;;
13331;SDS011;6735;51.456;12.626;2024-02-21T04:29:17;6.47;;;4.00;;
13331;SDS011;6735;51.456;12.626;2024-02-21T04:31:42;7.47;;;3.70;;
13331;SDS011;6735;51.456;12.626;2024-02-21T04:34:08;8.30;;;4.30;;
13331;SDS011;6735;51.456;12.626;2024-02-21T04:36:33;9.07;;;4.23;;
13331;SDS011;6735;51.456;12.626;2024-02-21T04:38:58;13.53;;;4.70;;
13331;SDS011;6735;51.456;12.626;2024-02-21T04:41:24;10.93;;;4.87;;
13331;SDS011;6735;51.456;12.626;2024-02-21T04:43:49;9.93;;;4.53;;
13331;SDS011;6735;51.456;12.626;2024-02-21T04:46:15;7.97;;;3.77;;
13331;SDS011;6735;51.456;12.626;2024-02-21T04:48:40;12.37;;;4.33;;
13331;SDS011;6735;51.456;12.626;2024-02-21T04:51:06;7.60;;;4.40;;
13331;SDS011;6735;51.456;12.626;2024-02-21T04:53:31;9.27;;;3.90;;
13331;SDS011;6735;51.456;12.626;2024-02-21T04:55:57;11.57;;;3.77;;
13331;SDS011;6735;51.456;12.626;2024-02-21T04:58:23;9.27;;;4.23;;
13331;SDS011;6735;51.456;12.626;2024-02-21T05:00:48;13.07;;;4.50;;
13331;SDS011;6735;51.456;12.626;2024-02-21T05:03:14;8.87;;;4.20;;
13331;SDS011;6735;51.456;12.626;2024-02-21T05:05:39;11.07;;;5.20;;
13331;SDS011;6735;51.456;12.626;2024-02-21T05:08:05;6.50;;;4.17;;
13331;SDS011;6735;51.456;12.626;2024-02-21T05:10:32;8.33;;;4.20;;
13331;SDS011;6735;51.456;12.626;2024-02-21T05:12:58;11.07;;;4.60;;
13331;SDS011;6735;51.456;12.626;2024-02-21T05:15:23;9.30;;;3.93;;
13331;SDS011;6735;51.456;12.626;2024-02-21T05:17:49;7.83;;;4.20;;
13331;SDS011;6735;51.456;12.626;2024-02-21T05:20:14;11.07;;;4.20;;
13331;SDS011;6735;51.456;12.626;2024-02-21T05:22:40;10.70;;;4.80;;
13331;SDS011;6735;51.456;12.626;2024-02-21T05:25:05;7.63;;;4.23;;
13331;SDS011;6735;51.456;12.626;2024-02-21T05:27:31;8.67;;;4.50;;
13331;SDS011;6735;51.456;12.626;2024-02-21T05:29:57;7.27;;;4.13;;
13331;SDS011;6735;51.456;12.626;2024-02-21T05:32:23;8.27;;;4.07;;
13331;SDS011;6735;51.456;12.626;2024-02-21T05:34:49;10.47;;;4.10;;
13331;SDS011;6735;51.456;12.626;2024-02-21T05:37:15;12.27;;;4.60;;
13331;SDS011;6735;51.456;12.626;2024-02-21T05:39:41;10.60;;;4.37;;
13331;SDS011;6735;51.456;12.626;2024-02-21T05:42:06;14.63;;;4.60;;
13331;SDS011;6735;51.456;12.626;2024-02-21T05:44:32;13.33;;;4.10;;
13331;SDS011;6735;51.456;12.626;2024-02-21T05:46:57;9.07;;;4.40;;
13331;SDS011;6735;51.456;12.626;2024-02-21T05:49:23;7.73;;;4.17;;
13331;SDS011;6735;51.456;12.626;2024-02-21T05:51:48;9.10;;;3.83;;
13331;SDS011;6735;51.456;12.626;2024-02-21T05:54:14;11.20;;;4.10;;
13331;SDS011;6735;51.456;12.626;2024-02-21T05:56:39;10.17;;;4.60;;
13331;SDS011;6735;51.456;12.626;2024-02-21T05:59:08;8.50;;;4.20;;
13331;SDS011;6735;51.456;12.626;2024-02-21T06:01:33;10.40;;;3.90;;
13331;SDS011;6735;51.456;12.626;2024-02-21T06:03:59;9.00;;;4.20;;
13331;SDS011;6735;51.456;12.626;2024-02-21T06:06:24;14.07;;;4.60;;
13331;SDS011;6735;51.456;12.626;2024-02-21T06:08:50;8.30;;;4.20;;
13331;SDS011;6735;51.456;12.626;2024-02-21T06:11:15;6.20;;;4.33;;
13331;SDS011;6735;51.456;12.626;2024-02-21T06:13:41;10.33;;;4.20;;
13331;SDS011;6735;51.456;12.626;2024-02-21T06:16:06;10.07;;;3.80;;
13331;SDS011;6735;51.456;12.626;2024-02-21T06:18:32;10.80;;;3.60;;
13331;SDS011;6735;51.456;12.626;2024-02-21T06:21:00;9.20;;;4.37;;
13331;SDS011;6735;51.456;12.626;2024-02-21T06:23:25;9.20;;;3.83;;
13331;SDS011;6735;51.456;12.626;2024-02-21T06:25:51;8.87;;;4.73;;
13331;SDS011;6735;51.456;12.626;2024-02-21T06:28:17;7.50;;;3.40;;
13331;SDS011;6735;51.456;12.626;2024-02-21T06:30:42;6.27;;;3.67;;
13331;SDS011;6735;51.456;12.626;2024-02-21T06:33:08;8.70;;;4.40;;
13331;SDS011;6735;51.456;12.626;2024-02-21T06:35:33;6.50;;;3.40;;
13331;SDS011;6735;51.456;12.626;2024-02-21T06:37:59;5.20;;;3.90;;
13331;SDS011;6735;51.456;12.626;2024-02-21T06:40:24;7.53;;;3.73;;
13331;SDS011;6735;51.456;12.626;2024-02-21T06:42:50;12.00;;;4.30;;
13331;SDS011;6735;51.456;12.626;2024-02-21T06:45:16;9.63;;;3.93;;
13331;SDS011;6735;51.456;12.626;2024-02-21T06:47:41;10.00;;;4.60;;
13331;SDS011;6735;51.456;12.626;2024-02-21T06:50:07;8.50;;;4.60;;
13331;SDS011;6735;51.456;12.626;2024-02-21T06:52:33;6.73;;;4.03;;
13331;SDS011;6735;51.456;12.626;2024-02-21T06:54:59;7.60;;;4.05;;
13331;SDS011;6735;51.456;12.626;2024-02-21T06:57:25;7.37;;;4.30;;
13331;SDS011;6735;51.456;12.626;2024-02-21T06:59:50;6.67;;;3.73;;
13331;SDS011;6735;51.456;12.626;2024-02-21T07:02:15;6.83;;;4.90;;
13331;SDS011;6735;51.456;12.626;2024-02-21T07:04:41;12.40;;;5.30;;
13331;SDS011;6735;51.456;12.626;2024-02-21T07:07:06;9.33;;;5.83;;
13331;SDS011;6735;51.456;12.626;2024-02-21T07:09:32;11.97;;;5.20;;
13331;SDS011;6735;51.456;12.626;2024-02-21T07:11:58;11.20;;;4.03;;
13331;SDS011;6735;51.456;12.626;2024-02-21T07:14:24;10.83;;;4.10;;
13331;SDS011;6735;51.456;12.626;2024-02-21T07:16:50;9.77;;;3.97;;
13331;SDS011;6735;51.456;12.626;2024-02-21T07:19:15;8.00;;;4.00;;
13331;SDS011;6735;51.456;12.626;2024-02-21T07:21:41;10.93;;;4.23;;
13331;SDS011;6735;51.456;12.626;2024-02-21T07:24:07;11.53;;;3.97;;
13331;SDS011;6735;51.456;12.626;2024-02-21T07:26:33;9.70;;;3.90;;
13331;SDS011;6735;51.456;12.626;2024-02-21T07:28:58;7.77;;;4.07;;
13331;SDS011;6735;51.456;12.626;2024-02-21T07:31:23;7.50;;;4.37;;
13331;SDS011;6735;51.456;12.626;2024-02-21T07:33:49;10.60;;;4.70;;
13331;SDS011;6735;51.456;12.626;2024-02-21T07:36:15;12.47;;;5.07;;
13331;SDS011;6735;51.456;12.626;2024-02-21T07:38:40;10.03;;;4.70;;
13331;SDS011;6735;51.456;12.626;2024-02-21T07:41:06;9.03;;;4.40;;
13331;SDS011;6735;51.456;12.626;2024-02-21T07:43:32;14.77;;;5.57;;
13331;SDS011;6735;51.456;12.626;2024-02-21T07:45:57;11.07;;;4.93;;
13331;SDS011;6735;51.456;12.626;2024-02-21T07:48:23;11.73;;;4.83;;
13331;SDS011;6735;51.456;12.626;2024-02-21T07:50:49;10.93;;;5.30;;
13331;SDS011;6735;51.456;12.626;2024-02-21T07:53:15;8.73;;;4.87;;
13331;SDS011;6735;51.456;12.626;2024-02-21T07:55:41;10.73;;;5.27;;
13331;SDS011;6735;51.456;12.626;2024-02-21T07:58:06;6.73;;;4.37;;
13331;SDS011;6735;51.456;12.626;2024-02-21T08:00:32;10.03;;;4.83;;
13331;SDS011;6735;51.456;12.626;2024-02-21T08:02:58;10.40;;;5.33;;
13331;SDS011;6735;51.456;12.626;2024-02-21T08:05:24;7.90;;;5.10;;
13331;SDS011;6735;51.456;12.626;2024-02-21T08:07:49;8.17;;;4.87;;
13331;SDS011;6735;51.456;12.626;2024-02-21T08:10:15;10.30;;;5.03;;
13331;SDS011;6735;51.456;12.626;2024-02-21T08:12:40;7.60;;;4.17;;
13331;SDS011;6735;51.456;12.626;2024-02-21T08:15:06;11.40;;;5.20;;
13331;SDS011;6735;51.456;12.626;2024-02-21T08:17:35;9.10;;;5.37;;
13331;SDS011;6735;51.456;12.626;2024-02-21T08:20:01;8.97;;;4.40;;
13331;SDS011;6735;51.456;12.626;2024-02-21T08:22:27;8.47;;;4.97;;
13331;SDS011;6735;51.456;12.626;2024-02-21T08:24:53;8.63;;;4.77;;
13331;SDS011;6735;51.456;12.626;2024-02-21T08:27:18;8.63;;;4.37;;
13331;SDS011;6735;51.456;12.626;2024-02-21T08:29:44;10.47;;;5.03;;
13331;SDS011;6735;51.456;12.626;2024-02-21T08:32:09;8.77;;;4.83;;
13331;SDS011;6735;51.456;12.626;2024-02-21T08:34:35;10.00;;;5.00;;
13331;SDS011;6735;51.456;12.626;2024-02-21T08:37:00;9.43;;;5.17;;
13331;SDS011;6735;51.456;12.626;2024-02-21T08:39:26;8.43;;;4.80;;
13331;SDS011;6735;51.456;12.626;2024-02-21T08:41:53;11.73;;;6.47;;
13331;SDS011;6735;51.456;12.626;2024-02-21T08:44:19;7.93;;;5.03;;
13331;SDS011;6735;51.456;12.626;2024-02-21T08:46:44;9.87;;;4.83;;
13331;SDS011;6735;51.456;12.626;2024-02-21T08:49:12;10.43;;;4.53;;
13331;SDS011;6735;51.456;12.626;2024-02-21T08:51:38;7.40;;;4.73;;
13331;SDS011;6735;51.456;12.626;2024-02-21T08:54:04;8.43;;;5.00;;
13331;SDS011;6735;51.456;12.626;2024-02-21T08:56:30;7.37;;;4.57;;
13331;SDS011;6735;51.456;12.626;2024-02-21T08:58:56;10.87;;;4.90;;
13331;SDS011;6735;51.456;12.626;2024-02-21T09:01:22;9.17;;;5.07;;
13331;SDS011;6735;51.456;12.626;2024-02-21T09:03:48;11.17;;;4.90;;
13331;SDS011;6735;51.456;12.626;2024-02-21T09:06:18;7.43;;;4.70;;
13331;SDS011;6735;51.456;12.626;2024-02-21T09:08:44;13.27;;;5.40;;
13331;SDS011;6735;51.456;12.626;2024-02-21T09:11:10;9.77;;;4.23;;
13331;SDS011;6735;51.456;12.626;2024-02-21T09:13:35;8.63;;;4.40;;
13331;SDS011;6735;51.456;12.626;2024-02-21T09:16:01;9.47;;;5.07;;
13331;SDS011;6735;51.456;12.626;2024-02-21T09:18:26;7.00;;;4.60;;
13331;SDS011;6735;51.456;12.626;2024-02-21T09:20:52;11.53;;;4.90;;
13331;SDS011;6735;51.456;12.626;2024-02-21T09:23:17;9.53;;;4.57;;
13331;SDS011;6735;51.456;12.626;2024-02-21T09:25:44;8.27;;;4.30;;
13331;SDS011;6735;51.456;12.626;2024-02-21T09:28:10;7.13;;;4.53;;
13331;SDS011;6735;51.456;12.626;2024-02-21T09:30:38;10.63;;;5.03;;
13331;SDS011;6735;51.456;12.626;2024-02-21T09:33:03;13.00;;;4.40;;
13331;SDS011;6735;51.456;12.626;2024-02-21T09:35:30;9.23;;;5.47;;
13331;SDS011;6735;51.456;12.626;2024-02-21T09:37:55;8.80;;;4.67;;
13331;SDS011;6735;51.456;12.626;2024-02-21T09:40:21;10.47;;;4.63;;
13331;SDS011;6735;51.456;12.626;2024-02-21T09:42:47;11.30;;;4.90;;
13331;SDS011;6735;51.456;12.626;2024-02-21T09:47:52;12.63;;;4.83;;
13331;SDS011;6735;51.456;12.626;2024-02-21T09:50:40;8.67;;;4.30;;
13331;SDS011;6735;51.456;12.626;2024-02-21T09:53:06;8.83;;;4.50;;
13331;SDS011;6735;51.456;12.626;2024-02-21T09:55:32;8.43;;;4.50;;
13331;SDS011;6735;51.456;12.626;2024-02-21T09:57:59;8.53;;;4.37;;
13331;SDS011;6735;51.456;12.626;2024-02-21T10:00:26;5.63;;;3.93;;
13331;SDS011;6735;51.456;12.626;2024-02-21T10:02:53;9.80;;;4.60;;
13331;SDS011;6735;51.456;12.626;2024-02-21T10:05:19;5.73;;;4.33;;
13331;SDS011;6735;51.456;12.626;2024-02-21T10:07:44;7.07;;;3.70;;
13331;SDS011;6735;51.456;12.626;2024-02-21T10:10:10;8.47;;;4.07;;
13331;SDS011;6735;51.456;12.626;2024-02-21T10:12:36;6.03;;;3.73;;
13331;SDS011;6735;51.456;12.626;2024-02-21T10:15:05;7.23;;;4.07;;
13331;SDS011;6735;51.456;12.626;2024-02-21T10:17:34;8.90;;;4.93;;
13331;SDS011;6735;51.456;12.626;2024-02-21T10:20:07;6.33;;;3.40;;
13331;SDS011;6735;51.456;12.626;2024-02-21T10:22:34;5.00;;;3.60;;
13331;SDS011;6735;51.456;12.626;2024-02-21T10:25:10;5.77;;;4.27;;
13331;SDS011;6735;51.456;12.626;2024-02-21T10:27:37;9.30;;;4.67;;
13331;SDS011;6735;51.456;12.626;2024-02-21T10:30:04;7.53;;;4.23;;
13331;SDS011;6735;51.456;12.626;2024-02-21T10:32:32;6.03;;;3.97;;
13331;SDS011;6735;51.456;12.626;2024-02-21T10:35:01;7.53;;;4.20;;
13331;SDS011;6735;51.456;12.626;2024-02-21T10:37:29;8.43;;;3.93;;
13331;SDS011;6735;51.456;12.626;2024-02-21T10:39:55;8.10;;;4.00;;
13331;SDS011;6735;51.456;12.626;2024-02-21T10:42:21;5.87;;;3.63;;
13331;SDS011;6735;51.456;12.626;2024-02-21T10:44:48;7.87;;;3.93;;
13331;SDS011;6735;51.456;12.626;2024-02-21T10:47:17;6.73;;;4.30;;
13331;SDS011;6735;51.456;12.626;2024-02-21T10:49:46;8.30;;;3.73;;
13331;SDS011;6735;51.456;12.626;2024-02-21T10:52:22;7.73;;;3.63;;
13331;SDS011;6735;51.456;12.626;2024-02-21T10:55:26;8.47;;;4.00;;
13331;SDS011;6735;51.456;12.626;2024-02-21T10:58:00;9.57;;;3.80;;
13331;SDS011;6735;51.456;12.626;2024-02-21T11:00:26;9.33;;;3.47;;
13331;SDS011;6735;51.456;12.626;2024-02-21T11:02:55;5.30;;;3.40;;
13331;SDS011;6735;51.456;12.626;2024-02-21T11:05:24;6.57;;;4.10;;
13331;SDS011;6735;51.456;12.626;2024-02-21T11:07:50;6.43;;;4.60;;
13331;SDS011;6735;51.456;12.626;2024-02-21T11:10:23;7.80;;;4.10;;
13331;SDS011;6735;51.456;12.626;2024-02-21T11:12:52;7.77;;;4.30;;
13331;SDS011;6735;51.456;12.626;2024-02-21T11:15:19;6.87;;;4.13;;
13331;SDS011;6735;51.456;12.626;2024-02-21T11:17:55;4.93;;;3.67;;
13331;SDS011;6735;51.456;12.626;2024-02-21T11:20:21;10.23;;;3.57;;
13331;SDS011;6735;51.456;12.626;2024-02-21T11:23:00;8.43;;;4.50;;
13331;SDS011;6735;51.456;12.626;2024-02-21T11:25:26;7.23;;;3.53;;
13331;SDS011;6735;51.456;12.626;2024-02-21T11:28:04;7.83;;;3.83;;
13331;SDS011;6735;51.456;12.626;2024-02-21T11:30:32;7.27;;;3.40;;
13331;SDS011;6735;51.456;12.626;2024-02-21T11:33:00;7.80;;;4.37;;
13331;SDS011;6735;51.456;12.626;2024-02-21T11:35:34;8.07;;;3.37;;
13331;SDS011;6735;51.456;12.626;2024-02-21T11:38:07;7.33;;;3.47;;
13331;SDS011;6735;51.456;12.626;2024-02-21T11:40:39;5.43;;;3.40;;
13331;SDS011;6735;51.456;12.626;2024-02-21T11:43:06;6.97;;;3.23;;
13331;SDS011;6735;51.456;12.626;2024-02-21T11:45:32;7.37;;;3.63;;
13331;SDS011;6735;51.456;12.626;2024-02-21T11:47:58;8.60;;;3.77;;
13331;SDS011;6735;51.456;12.626;2024-02-21T11:50:25;6.33;;;3.30;;
13331;SDS011;6735;51.456;12.626;2024-02-21T11:52:54;7.07;;;3.63;;
13331;SDS011;6735;51.456;12.626;2024-02-21T11:55:20;6.50;;;3.33;;
13331;SDS011;6735;51.456;12.626;2024-02-21T11:57:49;6.23;;;3.10;;
13331;SDS011;6735;51.456;12.626;2024-02-21T12:00:15;5.13;;;3.70;;
13331;SDS011;6735;51.456;12.626;2024-02-21T12:02:42;7.33;;;3.40;;
13331;SDS011;6735;51.456;12.626;2024-02-21T12:05:08;6.97;;;3.57;;
13331;SDS011;6735;51.456;12.626;2024-02-21T12:07:36;7.93;;;4.07;;
13331;SDS011;6735;51.456;12.626;2024-02-21T12:10:06;3.47;;;3.03;;
13331;SDS011;6735;51.456;12.626;2024-02-21T12:12:35;4.93;;;3.33;;
13331;SDS011;6735;51.456;12.626;2024-02-21T12:15:02;6.07;;;3.67;;
13331;SDS011;6735;51.456;12.626;2024-02-21T12:17:34;7.77;;;3.63;;
13331;SDS011;6735;51.456;12.626;2024-02-21T12:20:01;5.27;;;3.47;;
13331;SDS011;6735;51.456;12.626;2024-02-21T12:22:29;7.10;;;3.80;;
13331;SDS011;6735;51.456;12.626;2024-02-21T12:24:57;6.00;;;4.00;;
13331;SDS011;6735;51.456;12.626;2024-02-21T12:27:23;6.43;;;4.37;;
13331;SDS011;6735;51.456;12.626;2024-02-21T12:29:48;11.67;;;4.97;;
13331;SDS011;6735;51.456;12.626;2024-02-21T12:32:14;6.83;;;3.83;;
13331;SDS011;6735;51.456;12.626;2024-02-21T12:34:40;5.73;;;3.73;;
13331;SDS011;6735;51.456;12.626;2024-02-21T12:37:05;5.87;;;3.10;;
13331;SDS011;6735;51.456;12.626;2024-02-21T12:39:30;6.97;;;3.40;;
13331;SDS011;6735;51.456;12.626;2024-02-21T12:41:56;7.37;;;3.00;;
13331;SDS011;6735;51.456;12.626;2024-02-21T12:44:22;6.50;;;2.77;;
13331;SDS011;6735;51.456;12.626;2024-02-21T12:46:49;4.63;;;3.00;;
13331;SDS011;6735;51.456;12.626;2024-02-21T12:49:17;4.47;;;2.83;;
13331;SDS011;6735;51.456;12.626;2024-02-21T12:51:43;7.07;;;3.03;;
13331;SDS011;6735;51.456;12.626;2024-02-21T12:54:11;4.90;;;3.00;;
13331;SDS011;6735;51.456;12.626;2024-02-21T12:56:37;3.90;;;2.60;;
13331;SDS011;6735;51.456;12.626;2024-02-21T12:59:02;5.40;;;2.73;;
13331;SDS011;6735;51.456;12.626;2024-02-21T13:01:28;6.23;;;3.23;;
13331;SDS011;6735;51.456;12.626;2024-02-21T13:03:53;4.80;;;3.23;;
13331;SDS011;6735;51.456;12.626;2024-02-21T13:06:20;7.43;;;3.00;;
13331;SDS011;6735;51.456;12.626;2024-02-21T13:08:46;2.97;;;2.30;;
13331;SDS011;6735;51.456;12.626;2024-02-21T13:11:12;6.37;;;2.57;;
13331;SDS011;6735;51.456;12.626;2024-02-21T13:13:37;5.97;;;2.80;;
13331;SDS011;6735;51.456;12.626;2024-02-21T13:16:03;3.07;;;2.70;;
13331;SDS011;6735;51.456;12.626;2024-02-21T13:18:29;3.63;;;2.50;;
13331;SDS011;6735;51.456;12.626;2024-02-21T13:20:54;3.77;;;2.10;;
13331;SDS011;6735;51.456;12.626;2024-02-21T13:23:20;5.70;;;2.30;;
13331;SDS011;6735;51.456;12.626;2024-02-21T13:25:49;5.40;;;2.73;;
13331;SDS011;6735;51.456;12.626;2024-02-21T13:28:15;3.10;;;2.43;;
13331;SDS011;6735;51.456;12.626;2024-02-21T13:30:41;2.30;;;2.10;;
13331;SDS011;6735;51.456;12.626;2024-02-21T13:33:07;2.70;;;2.30;;
13331;SDS011;6735;51.456;12.626;2024-02-21T13:35:33;3.30;;;2.43;;
13331;SDS011;6735;51.456;12.626;2024-02-21T13:38:01;3.33;;;2.70;;
13331;SDS011;6735;51.456;12.626;2024-02-21T13:40:28;3.80;;;2.40;;
13331;SDS011;6735;51.456;12.626;2024-02-21T13:42:53;5.30;;;2.67;;
13331;SDS011;6735;51.456;12.626;2024-02-21T13:45:19;4.27;;;2.63;;
13331;SDS011;6735;51.456;12.626;2024-02-21T13:47:44;6.40;;;2.80;;
13331;SDS011;6735;51.456;12.626;2024-02-21T13:50:10;4.17;;;3.43;;
13331;SDS011;6735;51.456;12.626;2024-02-21T13:52:39;7.33;;;2.90;;
13331;SDS011;6735;51.456;12.626;2024-02-21T13:55:05;3.93;;;2.57;;
13331;SDS011;6735;51.456;12.626;2024-02-21T13:57:33;3.30;;;2.50;;
13331;SDS011;6735;51.456;12.626;2024-02-21T13:59:59;8.57;;;3.30;;
13331;SDS011;6735;51.456;12.626;2024-02-21T14:02:25;7.73;;;3.27;;
13331;SDS011;6735;51.456;12.626;2024-02-21T14:04:50;5.07;;;2.70;;
13331;SDS011;6735;51.456;12.626;2024-02-21T14:07:16;5.43;;;3.70;;
13331;SDS011;6735;51.456;12.626;2024-02-21T14:09:42;9.23;;;4.20;;
13331;SDS011;6735;51.456;12.626;2024-02-21T14:12:08;7.43;;;3.50;;
13331;SDS011;6735;51.456;12.626;2024-02-21T14:14:36;5.77;;;3.97;;
13331;SDS011;6735;51.456;12.626;2024-02-21T14:17:02;4.80;;;3.50;;
13331;SDS011;6735;51.456;12.626;2024-02-21T14:19:28;8.00;;;4.60;;
13331;SDS011;6735;51.456;12.626;2024-02-21T14:21:54;6.77;;;3.40;;
13331;SDS011;6735;51.456;12.626;2024-02-21T14:24:19;5.00;;;3.40;;
13331;SDS011;6735;51.456;12.626;2024-02-21T14:26:45;6.93;;;4.27;;
13331;SDS011;6735;51.456;12.626;2024-02-21T14:29:10;7.63;;;4.53;;
13331;SDS011;6735;51.456;12.626;2024-02-21T14:31:36;5.13;;;3.27;;
13331;SDS011;6735;51.456;12.626;2024-02-21T14:34:01;7.03;;;3.73;;
13331;SDS011;6735;51.456;12.626;2024-02-21T14:36:27;5.20;;;3.03;;
13331;SDS011;6735;51.456;12.626;2024-02-21T14:38:53;6.70;;;3.70;;
13331;SDS011;6735;51.456;12.626;2024-02-21T14:41:18;4.77;;;2.83;;
13331;SDS011;6735;51.456;12.626;2024-02-21T14:43:44;5.00;;;2.80;;